sensor_id;sensor_type;location;lat;lon;timestamp;temperature;humidity
19898;DHT22;10111;50.814;4.572;2023-05-14T00:00:21;14.20;99.90
19898;DHT22;10111;50.814;4.572;2023-05-14T00:02:46;14.20;99.90
19898;DHT22;10111;50.814;4.572;2023-05-14T00:05:12;14.20;99.90
19898;DHT22;10111;50.814;4.572;2023-05-14T00:07:37;14.20;99.90
19898;DHT22;10111;50.814;4.572;2023-05-14T00:10:03;14.20;99.90
19898;DHT22;10111;50.814;4.572;2023-05-14T00:12:29;14.20;99.90
19898;DHT22;10111;50.814;4.572;2023-05-14T00:14:55;14.30;99.90
19898;DHT22;10111;50.814;4.572;2023-05-14T00:17:21;14.30;99.90
19898;DHT22;10111;50.814;4.572;2023-05-14T00:19:47;14.30;99.90
19898;DHT22;10111;50.814;4.572;2023-05-14T00:22:12;14.30;99.90
19898;DHT22;10111;50.814;4.572;2023-05-14T00:24:38;14.20;99.90
19898;DHT22;10111;50.814;4.572;2023-05-14T00:27:04;14.20;99.90
19898;DHT22;10111;50.814;4.572;2023-05-14T00:29:31;14.30;99.90
19898;DHT22;10111;50.814;4.572;2023-05-14T00:31:56;14.30;99.90
19898;DHT22;10111;50.814;4.572;2023-05-14T00:34:22;14.20;99.90
19898;DHT22;10111;50.814;4.572;2023-05-14T00:36:49;14.10;99.90
19898;DHT22;10111;50.814;4.572;2023-05-14T00:39:14;14.10;99.90
19898;DHT22;10111;50.814;4.572;2023-05-14T00:41:40;14.10;99.90
19898;DHT22;10111;50.814;4.572;2023-05-14T00:44:06;14.10;99.90
19898;DHT22;10111;50.814;4.572;2023-05-14T00:46:31;14.00;99.90
19898;DHT22;10111;50.814;4.572;2023-05-14T00:48:58;14.00;99.90
19898;DHT22;10111;50.814;4.572;2023-05-14T00:51:24;14.00;99.90
19898;DHT22;10111;50.814;4.572;2023-05-14T00:53:50;14.00;99.90
19898;DHT22;10111;50.814;4.572;2023-05-14T00:56:16;14.00;99.90
19898;DHT22;10111;50.814;4.572;2023-05-14T00:58:42;14.10;99.90
19898;DHT22;10111;50.814;4.572;2023-05-14T01:01:08;14.00;99.90
19898;DHT22;10111;50.814;4.572;2023-05-14T01:03:34;14.10;99.90
19898;DHT22;10111;50.814;4.572;2023-05-14T01:12:32;14.00;99.90
19898;DHT22;10111;50.814;4.572;2023-05-14T01:15:11;14.00;99.90
19898;DHT22;10111;50.814;4.572;2023-05-14T01:17:49;13.90;99.90
19898;DHT22;10111;50.814;4.572;2023-05-14T01:20:16;13.90;99.90
19898;DHT22;10111;50.814;4.572;2023-05-14T01:22:42;13.90;99.90
19898;DHT22;10111;50.814;4.572;2023-05-14T01:25:08;13.90;99.90
19898;DHT22;10111;50.814;4.572;2023-05-14T01:27:42;13.90;99.90
19898;DHT22;10111;50.814;4.572;2023-05-14T01:30:18;13.80;99.90
19898;DHT22;10111;50.814;4.572;2023-05-14T01:32:50;13.90;99.90
19898;DHT22;10111;50.814;4.572;2023-05-14T01:35:17;13.80;99.90
19898;DHT22;10111;50.814;4.572;2023-05-14T01:37:43;13.80;99.90
19898;DHT22;10111;50.814;4.572;2023-05-14T01:40:10;13.70;99.90
19898;DHT22;10111;50.814;4.572;2023-05-14T01:42:37;13.80;99.90
19898;DHT22;10111;50.814;4.572;2023-05-14T01:45:03;13.70;99.90
19898;DHT22;10111;50.814;4.572;2023-05-14T01:47:29;13.80;99.90
19898;DHT22;10111;50.814;4.572;2023-05-14T01:49:55;13.70;99.90
19898;DHT22;10111;50.814;4.572;2023-05-14T01:52:21;13.70;99.90
19898;DHT22;10111;50.814;4.572;2023-05-14T01:54:47;13.70;99.90
19898;DHT22;10111;50.814;4.572;2023-05-14T01:57:12;13.70;99.90
19898;DHT22;10111;50.814;4.572;2023-05-14T01:59:38;13.70;99.90
19898;DHT22;10111;50.814;4.572;2023-05-14T02:02:04;13.60;99.90
19898;DHT22;10111;50.814;4.572;2023-05-14T02:04:30;13.60;99.90
19898;DHT22;10111;50.814;4.572;2023-05-14T02:06:55;13.60;99.90
19898;DHT22;10111;50.814;4.572;2023-05-14T02:09:21;13.60;99.90
19898;DHT22;10111;50.814;4.572;2023-05-14T02:11:47;13.50;99.90
19898;DHT22;10111;50.814;4.572;2023-05-14T02:14:12;13.60;99.90
19898;DHT22;10111;50.814;4.572;2023-05-14T02:16:39;13.60;99.90
19898;DHT22;10111;50.814;4.572;2023-05-14T02:19:05;13.60;99.90
19898;DHT22;10111;50.814;4.572;2023-05-14T02:21:31;13.50;99.90
19898;DHT22;10111;50.814;4.572;2023-05-14T02:23:56;13.60;99.90
19898;DHT22;10111;50.814;4.572;2023-05-14T02:26:22;13.60;99.90
19898;DHT22;10111;50.814;4.572;2023-05-14T02:28:48;13.60;99.90
19898;DHT22;10111;50.814;4.572;2023-05-14T02:31:14;13.60;99.90
19898;DHT22;10111;50.814;4.572;2023-05-14T02:33:39;13.60;99.90
19898;DHT22;10111;50.814;4.572;2023-05-14T02:36:05;13.60;99.90
19898;DHT22;10111;50.814;4.572;2023-05-14T02:38:31;13.60;99.90
19898;DHT22;10111;50.814;4.572;2023-05-14T02:40:56;13.60;99.90
19898;DHT22;10111;50.814;4.572;2023-05-14T02:43:22;13.50;99.90
19898;DHT22;10111;50.814;4.572;2023-05-14T02:45:48;13.50;99.90
19898;DHT22;10111;50.814;4.572;2023-05-14T02:48:13;13.60;99.90
19898;DHT22;10111;50.814;4.572;2023-05-14T02:50:39;13.50;99.90
19898;DHT22;10111;50.814;4.572;2023-05-14T02:53:05;13.50;99.90
19898;DHT22;10111;50.814;4.572;2023-05-14T02:55:30;13.50;99.90
19898;DHT22;10111;50.814;4.572;2023-05-14T02:57:56;13.50;99.90
19898;DHT22;10111;50.814;4.572;2023-05-14T03:00:22;13.50;99.90
19898;DHT22;10111;50.814;4.572;2023-05-14T03:02:47;13.50;99.90
19898;DHT22;10111;50.814;4.572;2023-05-14T03:05:13;13.60;99.90
19898;DHT22;10111;50.814;4.572;2023-05-14T03:07:39;13.60;99.90
19898;DHT22;10111;50.814;4.572;2023-05-14T03:10:05;13.60;99.90
19898;DHT22;10111;50.814;4.572;2023-05-14T03:12:31;13.50;99.90
19898;DHT22;10111;50.814;4.572;2023-05-14T03:14:56;13.50;99.90
19898;DHT22;10111;50.814;4.572;2023-05-14T03:17:22;13.60;99.90
19898;DHT22;10111;50.814;4.572;2023-05-14T03:19:47;13.60;99.90
19898;DHT22;10111;50.814;4.572;2023-05-14T03:22:13;13.60;99.90
19898;DHT22;10111;50.814;4.572;2023-05-14T03:24:39;13.60;99.90
19898;DHT22;10111;50.814;4.572;2023-05-14T03:27:05;13.60;99.90
19898;DHT22;10111;50.814;4.572;2023-05-14T03:29:31;13.60;99.90
19898;DHT22;10111;50.814;4.572;2023-05-14T03:31:56;13.50;99.90
19898;DHT22;10111;50.814;4.572;2023-05-14T03:34:22;13.50;99.90
19898;DHT22;10111;50.814;4.572;2023-05-14T03:36:48;13.50;99.90
19898;DHT22;10111;50.814;4.572;2023-05-14T03:39:14;13.40;99.90
19898;DHT22;10111;50.814;4.572;2023-05-14T03:41:44;13.50;99.90
19898;DHT22;10111;50.814;4.572;2023-05-14T03:44:11;13.40;99.90
19898;DHT22;10111;50.814;4.572;2023-05-14T03:46:36;13.50;99.90
19898;DHT22;10111;50.814;4.572;2023-05-14T03:49:02;13.50;99.90
19898;DHT22;10111;50.814;4.572;2023-05-14T03:51:28;13.50;99.90
19898;DHT22;10111;50.814;4.572;2023-05-14T03:53:53;13.50;99.90
19898;DHT22;10111;50.814;4.572;2023-05-14T03:56:20;13.50;99.90
19898;DHT22;10111;50.814;4.572;2023-05-14T03:58:46;13.50;99.90
19898;DHT22;10111;50.814;4.572;2023-05-14T04:01:12;13.40;99.90
19898;DHT22;10111;50.814;4.572;2023-05-14T04:03:38;13.50;99.90
19898;DHT22;10111;50.814;4.572;2023-05-14T04:06:03;13.50;99.90
19898;DHT22;10111;50.814;4.572;2023-05-14T04:08:29;13.40;99.90
19898;DHT22;10111;50.814;4.572;2023-05-14T04:10:55;13.40;99.90
19898;DHT22;10111;50.814;4.572;2023-05-14T04:13:21;13.40;99.90
19898;DHT22;10111;50.814;4.572;2023-05-14T04:15:46;13.40;99.90
19898;DHT22;10111;50.814;4.572;2023-05-14T04:18:12;13.40;99.90
19898;DHT22;10111;50.814;4.572;2023-05-14T04:20:38;13.30;99.90
19898;DHT22;10111;50.814;4.572;2023-05-14T04:23:03;13.40;99.90
19898;DHT22;10111;50.814;4.572;2023-05-14T04:25:29;13.50;99.90
19898;DHT22;10111;50.814;4.572;2023-05-14T04:27:55;13.50;99.90
19898;DHT22;10111;50.814;4.572;2023-05-14T04:30:20;13.50;99.90
19898;DHT22;10111;50.814;4.572;2023-05-14T04:32:46;13.60;99.90
19898;DHT22;10111;50.814;4.572;2023-05-14T04:35:12;13.60;99.90
19898;DHT22;10111;50.814;4.572;2023-05-14T04:37:37;13.60;99.90
19898;DHT22;10111;50.814;4.572;2023-05-14T04:40:08;13.60;99.90
19898;DHT22;10111;50.814;4.572;2023-05-14T04:42:36;13.60;99.90
19898;DHT22;10111;50.814;4.572;2023-05-14T04:45:02;13.50;99.90
19898;DHT22;10111;50.814;4.572;2023-05-14T04:47:30;13.50;99.90
19898;DHT22;10111;50.814;4.572;2023-05-14T04:49:55;13.50;99.90
19898;DHT22;10111;50.814;4.572;2023-05-14T04:52:22;13.60;99.90
19898;DHT22;10111;50.814;4.572;2023-05-14T04:54:48;13.60;99.90
19898;DHT22;10111;50.814;4.572;2023-05-14T04:57:14;13.60;99.90
19898;DHT22;10111;50.814;4.572;2023-05-14T04:59:40;13.60;99.90
19898;DHT22;10111;50.814;4.572;2023-05-14T05:02:06;13.60;99.90
19898;DHT22;10111;50.814;4.572;2023-05-14T05:04:32;13.60;99.90
19898;DHT22;10111;50.814;4.572;2023-05-14T05:06:57;13.60;99.90
19898;DHT22;10111;50.814;4.572;2023-05-14T05:09:23;13.60;99.90
19898;DHT22;10111;50.814;4.572;2023-05-14T05:11:48;13.70;99.90
19898;DHT22;10111;50.814;4.572;2023-05-14T05:14:14;13.80;99.90
19898;DHT22;10111;50.814;4.572;2023-05-14T05:16:40;13.80;99.90
19898;DHT22;10111;50.814;4.572;2023-05-14T05:19:05;13.80;99.90
19898;DHT22;10111;50.814;4.572;2023-05-14T05:21:31;13.80;99.90
19898;DHT22;10111;50.814;4.572;2023-05-14T05:23:57;13.80;99.90
19898;DHT22;10111;50.814;4.572;2023-05-14T05:26:24;13.80;99.90
19898;DHT22;10111;50.814;4.572;2023-05-14T05:28:51;13.90;99.90
19898;DHT22;10111;50.814;4.572;2023-05-14T05:31:16;14.00;99.90
19898;DHT22;10111;50.814;4.572;2023-05-14T05:33:42;13.90;99.90
19898;DHT22;10111;50.814;4.572;2023-05-14T05:36:08;14.00;99.90
19898;DHT22;10111;50.814;4.572;2023-05-14T05:38:33;14.00;99.90
19898;DHT22;10111;50.814;4.572;2023-05-14T05:40:59;14.10;99.90
19898;DHT22;10111;50.814;4.572;2023-05-14T05:43:25;14.10;99.90
19898;DHT22;10111;50.814;4.572;2023-05-14T05:45:53;14.20;99.90
19898;DHT22;10111;50.814;4.572;2023-05-14T05:48:18;14.40;99.90
19898;DHT22;10111;50.814;4.572;2023-05-14T05:50:46;14.50;99.90
19898;DHT22;10111;50.814;4.572;2023-05-14T05:53:11;14.50;99.90
19898;DHT22;10111;50.814;4.572;2023-05-14T05:55:37;14.50;99.90
19898;DHT22;10111;50.814;4.572;2023-05-14T05:58:03;14.50;99.90
19898;DHT22;10111;50.814;4.572;2023-05-14T06:00:28;14.50;99.90
19898;DHT22;10111;50.814;4.572;2023-05-14T06:02:55;14.60;99.90
19898;DHT22;10111;50.814;4.572;2023-05-14T06:05:21;14.60;99.90
19898;DHT22;10111;50.814;4.572;2023-05-14T06:07:46;14.60;99.90
19898;DHT22;10111;50.814;4.572;2023-05-14T06:10:12;14.60;99.90
19898;DHT22;10111;50.814;4.572;2023-05-14T06:12:38;14.60;99.90
19898;DHT22;10111;50.814;4.572;2023-05-14T06:15:04;14.70;99.90
19898;DHT22;10111;50.814;4.572;2023-05-14T06:17:29;14.60;99.90
19898;DHT22;10111;50.814;4.572;2023-05-14T06:19:55;14.70;99.90
19898;DHT22;10111;50.814;4.572;2023-05-14T06:22:21;14.80;99.90
19898;DHT22;10111;50.814;4.572;2023-05-14T06:24:47;14.80;99.90
19898;DHT22;10111;50.814;4.572;2023-05-14T06:27:13;14.90;99.90
19898;DHT22;10111;50.814;4.572;2023-05-14T06:29:39;14.90;99.90
19898;DHT22;10111;50.814;4.572;2023-05-14T06:32:05;15.00;99.90
19898;DHT22;10111;50.814;4.572;2023-05-14T06:34:31;15.00;99.90
19898;DHT22;10111;50.814;4.572;2023-05-14T06:36:56;15.10;99.90
19898;DHT22;10111;50.814;4.572;2023-05-14T06:39:22;14.90;99.90
19898;DHT22;10111;50.814;4.572;2023-05-14T06:41:49;14.80;99.90
19898;DHT22;10111;50.814;4.572;2023-05-14T06:44:17;14.70;99.90
19898;DHT22;10111;50.814;4.572;2023-05-14T06:46:42;14.70;99.90
19898;DHT22;10111;50.814;4.572;2023-05-14T06:49:08;14.70;99.90
19898;DHT22;10111;50.814;4.572;2023-05-14T06:51:33;14.70;99.90
19898;DHT22;10111;50.814;4.572;2023-05-14T06:53:59;14.70;99.90
19898;DHT22;10111;50.814;4.572;2023-05-14T06:56:25;14.60;99.90
19898;DHT22;10111;50.814;4.572;2023-05-14T06:58:50;14.60;99.90
19898;DHT22;10111;50.814;4.572;2023-05-14T07:01:16;14.60;99.90
19898;DHT22;10111;50.814;4.572;2023-05-14T07:03:42;14.60;99.90
19898;DHT22;10111;50.814;4.572;2023-05-14T07:06:07;14.60;99.90
19898;DHT22;10111;50.814;4.572;2023-05-14T07:08:33;14.50;99.90
19898;DHT22;10111;50.814;4.572;2023-05-14T07:10:58;14.60;99.90
19898;DHT22;10111;50.814;4.572;2023-05-14T07:13:25;14.60;99.90
19898;DHT22;10111;50.814;4.572;2023-05-14T07:15:52;14.70;99.90
19898;DHT22;10111;50.814;4.572;2023-05-14T07:18:20;14.60;99.90
19898;DHT22;10111;50.814;4.572;2023-05-14T07:20:46;14.60;99.90
19898;DHT22;10111;50.814;4.572;2023-05-14T07:23:11;14.70;99.90
19898;DHT22;10111;50.814;4.572;2023-05-14T07:25:37;14.70;99.90
19898;DHT22;10111;50.814;4.572;2023-05-14T07:28:03;14.60;99.90
19898;DHT22;10111;50.814;4.572;2023-05-14T07:30:28;14.60;99.90
19898;DHT22;10111;50.814;4.572;2023-05-14T07:32:54;14.70;99.90
19898;DHT22;10111;50.814;4.572;2023-05-14T07:35:20;14.70;99.90
19898;DHT22;10111;50.814;4.572;2023-05-14T07:37:45;15.00;99.90
19898;DHT22;10111;50.814;4.572;2023-05-14T07:40:11;15.30;99.90
19898;DHT22;10111;50.814;4.572;2023-05-14T07:42:37;15.50;99.90
19898;DHT22;10111;50.814;4.572;2023-05-14T07:45:04;15.60;99.90
19898;DHT22;10111;50.814;4.572;2023-05-14T07:47:29;15.70;99.90
19898;DHT22;10111;50.814;4.572;2023-05-14T07:49:56;15.60;99.90
19898;DHT22;10111;50.814;4.572;2023-05-14T07:52:22;15.60;99.90
19898;DHT22;10111;50.814;4.572;2023-05-14T07:54:49;15.60;99.90
19898;DHT22;10111;50.814;4.572;2023-05-14T07:57:15;15.50;99.90
19898;DHT22;10111;50.814;4.572;2023-05-14T07:59:41;15.50;99.90
19898;DHT22;10111;50.814;4.572;2023-05-14T08:02:07;15.20;99.90
19898;DHT22;10111;50.814;4.572;2023-05-14T08:04:34;15.30;99.90
19898;DHT22;10111;50.814;4.572;2023-05-14T08:07:00;15.40;99.90
19898;DHT22;10111;50.814;4.572;2023-05-14T08:09:26;15.40;99.90
19898;DHT22;10111;50.814;4.572;2023-05-14T08:11:52;15.40;99.90
19898;DHT22;10111;50.814;4.572;2023-05-14T08:14:17;15.40;99.90
19898;DHT22;10111;50.814;4.572;2023-05-14T08:16:43;15.30;99.90
19898;DHT22;10111;50.814;4.572;2023-05-14T08:19:09;15.20;99.90
19898;DHT22;10111;50.814;4.572;2023-05-14T08:21:34;15.20;99.90
19898;DHT22;10111;50.814;4.572;2023-05-14T08:24:00;15.30;99.90
19898;DHT22;10111;50.814;4.572;2023-05-14T08:26:26;15.40;99.90
19898;DHT22;10111;50.814;4.572;2023-05-14T08:28:52;15.50;99.90
19898;DHT22;10111;50.814;4.572;2023-05-14T08:31:18;15.60;99.90
19898;DHT22;10111;50.814;4.572;2023-05-14T08:33:44;15.80;99.90
19898;DHT22;10111;50.814;4.572;2023-05-14T08:36:10;16.00;99.90
19898;DHT22;10111;50.814;4.572;2023-05-14T08:38:36;16.20;99.90
19898;DHT22;10111;50.814;4.572;2023-05-14T08:41:04;16.40;99.90
19898;DHT22;10111;50.814;4.572;2023-05-14T08:43:37;16.40;99.90
19898;DHT22;10111;50.814;4.572;2023-05-14T08:46:09;16.50;99.90
19898;DHT22;10111;50.814;4.572;2023-05-14T08:48:37;16.60;99.90
19898;DHT22;10111;50.814;4.572;2023-05-14T08:51:05;16.60;99.90
19898;DHT22;10111;50.814;4.572;2023-05-14T08:53:32;16.80;99.90
19898;DHT22;10111;50.814;4.572;2023-05-14T08:55:58;16.80;99.90
19898;DHT22;10111;50.814;4.572;2023-05-14T08:58:24;16.70;99.90
19898;DHT22;10111;50.814;4.572;2023-05-14T09:00:52;16.70;99.90
19898;DHT22;10111;50.814;4.572;2023-05-14T09:03:18;16.80;99.90
19898;DHT22;10111;50.814;4.572;2023-05-14T09:05:44;16.80;99.90
19898;DHT22;10111;50.814;4.572;2023-05-14T09:08:10;16.80;99.90
19898;DHT22;10111;50.814;4.572;2023-05-14T09:10:36;16.60;99.90
19898;DHT22;10111;50.814;4.572;2023-05-14T09:13:02;16.60;99.90
19898;DHT22;10111;50.814;4.572;2023-05-14T09:15:28;16.70;99.90
19898;DHT22;10111;50.814;4.572;2023-05-14T09:17:55;16.70;99.90
19898;DHT22;10111;50.814;4.572;2023-05-14T09:20:21;16.60;99.90
19898;DHT22;10111;50.814;4.572;2023-05-14T09:22:52;16.60;99.90
19898;DHT22;10111;50.814;4.572;2023-05-14T09:25:18;16.70;99.90
19898;DHT22;10111;50.814;4.572;2023-05-14T09:27:46;16.80;99.90
19898;DHT22;10111;50.814;4.572;2023-05-14T09:30:14;17.10;99.90
19898;DHT22;10111;50.814;4.572;2023-05-14T09:32:42;17.20;99.90
19898;DHT22;10111;50.814;4.572;2023-05-14T09:35:17;17.50;99.90
19898;DHT22;10111;50.814;4.572;2023-05-14T09:37:48;17.70;99.90
19898;DHT22;10111;50.814;4.572;2023-05-14T09:40:14;17.90;99.90
19898;DHT22;10111;50.814;4.572;2023-05-14T09:42:40;18.20;99.90
19898;DHT22;10111;50.814;4.572;2023-05-14T09:45:08;18.30;99.90
19898;DHT22;10111;50.814;4.572;2023-05-14T09:47:34;18.10;99.90
19898;DHT22;10111;50.814;4.572;2023-05-14T09:50:00;17.50;99.90
19898;DHT22;10111;50.814;4.572;2023-05-14T09:52:26;17.70;99.90
19898;DHT22;10111;50.814;4.572;2023-05-14T09:54:52;17.90;99.90
19898;DHT22;10111;50.814;4.572;2023-05-14T09:57:19;18.00;99.90
19898;DHT22;10111;50.814;4.572;2023-05-14T09:59:45;18.20;99.90
19898;DHT22;10111;50.814;4.572;2023-05-14T10:02:24;18.20;99.90
19898;DHT22;10111;50.814;4.572;2023-05-14T10:04:52;18.40;99.90
19898;DHT22;10111;50.814;4.572;2023-05-14T10:07:22;18.60;99.90
19898;DHT22;10111;50.814;4.572;2023-05-14T10:09:56;18.80;99.90
19898;DHT22;10111;50.814;4.572;2023-05-14T10:12:23;18.90;99.90
19898;DHT22;10111;50.814;4.572;2023-05-14T10:14:55;19.00;99.90
19898;DHT22;10111;50.814;4.572;2023-05-14T10:17:23;19.00;99.90
19898;DHT22;10111;50.814;4.572;2023-05-14T10:19:52;19.00;99.90
19898;DHT22;10111;50.814;4.572;2023-05-14T10:22:22;18.90;99.90
19898;DHT22;10111;50.814;4.572;2023-05-14T10:24:49;18.80;99.90
19898;DHT22;10111;50.814;4.572;2023-05-14T10:27:20;18.50;99.90
19898;DHT22;10111;50.814;4.572;2023-05-14T10:29:56;18.30;99.90
19898;DHT22;10111;50.814;4.572;2023-05-14T10:32:23;18.20;99.90
19898;DHT22;10111;50.814;4.572;2023-05-14T10:34:50;18.10;99.90
19898;DHT22;10111;50.814;4.572;2023-05-14T10:37:20;18.00;99.90
19898;DHT22;10111;50.814;4.572;2023-05-14T10:39:50;18.10;99.90
19898;DHT22;10111;50.814;4.572;2023-05-14T10:42:33;18.30;99.90
19898;DHT22;10111;50.814;4.572;2023-05-14T10:45:09;18.50;99.90
19898;DHT22;10111;50.814;4.572;2023-05-14T10:47:43;18.30;99.90
19898;DHT22;10111;50.814;4.572;2023-05-14T10:50:11;18.20;99.90
19898;DHT22;10111;50.814;4.572;2023-05-14T10:52:37;18.10;99.90
19898;DHT22;10111;50.814;4.572;2023-05-14T10:55:06;18.10;99.90
19898;DHT22;10111;50.814;4.572;2023-05-14T10:57:37;17.70;99.90
19898;DHT22;10111;50.814;4.572;2023-05-14T11:00:03;17.70;99.90
19898;DHT22;10111;50.814;4.572;2023-05-14T11:02:37;17.40;99.90
19898;DHT22;10111;50.814;4.572;2023-05-14T11:05:05;17.40;99.90
19898;DHT22;10111;50.814;4.572;2023-05-14T11:07:40;17.30;99.90
19898;DHT22;10111;50.814;4.572;2023-05-14T11:10:08;17.40;99.90
19898;DHT22;10111;50.814;4.572;2023-05-14T11:12:37;17.70;99.90
19898;DHT22;10111;50.814;4.572;2023-05-14T11:15:06;18.00;99.90
19898;DHT22;10111;50.814;4.572;2023-05-14T11:17:34;18.20;99.90
19898;DHT22;10111;50.814;4.572;2023-05-14T11:20:00;18.40;99.90
19898;DHT22;10111;50.814;4.572;2023-05-14T11:22:26;18.60;99.90
19898;DHT22;10111;50.814;4.572;2023-05-14T11:24:51;18.80;99.90
19898;DHT22;10111;50.814;4.572;2023-05-14T11:27:18;19.00;99.90
19898;DHT22;10111;50.814;4.572;2023-05-14T11:29:48;19.00;99.90
19898;DHT22;10111;50.814;4.572;2023-05-14T11:32:15;19.00;99.90
19898;DHT22;10111;50.814;4.572;2023-05-14T11:34:42;19.20;99.90
19898;DHT22;10111;50.814;4.572;2023-05-14T11:37:09;19.10;99.90
19898;DHT22;10111;50.814;4.572;2023-05-14T11:39:37;19.20;99.90
19898;DHT22;10111;50.814;4.572;2023-05-14T11:42:10;19.10;99.90
19898;DHT22;10111;50.814;4.572;2023-05-14T11:44:40;19.00;99.90
19898;DHT22;10111;50.814;4.572;2023-05-14T11:47:06;19.10;99.90
19898;DHT22;10111;50.814;4.572;2023-05-14T11:49:32;19.10;99.90
19898;DHT22;10111;50.814;4.572;2023-05-14T11:52:01;19.10;99.90
19898;DHT22;10111;50.814;4.572;2023-05-14T11:54:28;19.00;99.90
19898;DHT22;10111;50.814;4.572;2023-05-14T11:56:58;18.90;99.90
19898;DHT22;10111;50.814;4.572;2023-05-14T11:59:27;19.00;99.90
19898;DHT22;10111;50.814;4.572;2023-05-14T12:01:54;18.90;99.90
19898;DHT22;10111;50.814;4.572;2023-05-14T12:04:20;19.00;99.90
19898;DHT22;10111;50.814;4.572;2023-05-14T12:06:50;19.00;99.90
19898;DHT22;10111;50.814;4.572;2023-05-14T12:09:19;19.00;99.90
19898;DHT22;10111;50.814;4.572;2023-05-14T12:11:46;19.00;99.90
19898;DHT22;10111;50.814;4.572;2023-05-14T12:14:20;19.20;99.90
19898;DHT22;10111;50.814;4.572;2023-05-14T12:16:46;19.20;99.90
19898;DHT22;10111;50.814;4.572;2023-05-14T12:19:17;19.20;99.90
19898;DHT22;10111;50.814;4.572;2023-05-14T12:21:45;19.30;99.90
19898;DHT22;10111;50.814;4.572;2023-05-14T12:24:14;19.40;99.90
19898;DHT22;10111;50.814;4.572;2023-05-14T12:26:44;19.50;99.90
19898;DHT22;10111;50.814;4.572;2023-05-14T12:29:12;19.50;99.90
19898;DHT22;10111;50.814;4.572;2023-05-14T12:31:44;19.50;99.90
19898;DHT22;10111;50.814;4.572;2023-05-14T12:34:10;19.50;99.90
19898;DHT22;10111;50.814;4.572;2023-05-14T12:36:36;19.60;99.90
19898;DHT22;10111;50.814;4.572;2023-05-14T12:39:02;19.70;99.90
19898;DHT22;10111;50.814;4.572;2023-05-14T12:41:29;19.70;99.90
19898;DHT22;10111;50.814;4.572;2023-05-14T12:43:55;19.70;99.90
19898;DHT22;10111;50.814;4.572;2023-05-14T12:46:22;19.70;99.90
19898;DHT22;10111;50.814;4.572;2023-05-14T12:48:47;19.80;99.90
19898;DHT22;10111;50.814;4.572;2023-05-14T12:51:13;19.60;99.90
19898;DHT22;10111;50.814;4.572;2023-05-14T12:53:39;19.70;99.90
19898;DHT22;10111;50.814;4.572;2023-05-14T12:56:06;19.60;99.90
19898;DHT22;10111;50.814;4.572;2023-05-14T12:58:31;19.40;99.90
19898;DHT22;10111;50.814;4.572;2023-05-14T13:00:57;19.50;99.90
19898;DHT22;10111;50.814;4.572;2023-05-14T13:03:23;19.40;99.90
19898;DHT22;10111;50.814;4.572;2023-05-14T13:05:50;19.50;99.90
19898;DHT22;10111;50.814;4.572;2023-05-14T13:08:17;19.50;99.90
19898;DHT22;10111;50.814;4.572;2023-05-14T13:10:43;19.50;99.90
19898;DHT22;10111;50.814;4.572;2023-05-14T13:13:10;19.40;99.90
19898;DHT22;10111;50.814;4.572;2023-05-14T13:15:36;19.50;99.90
19898;DHT22;10111;50.814;4.572;2023-05-14T13:18:02;19.60;99.90
19898;DHT22;10111;50.814;4.572;2023-05-14T13:20:28;19.80;99.90
19898;DHT22;10111;50.814;4.572;2023-05-14T13:22:56;19.80;99.90
19898;DHT22;10111;50.814;4.572;2023-05-14T13:25:22;19.80;99.90
19898;DHT22;10111;50.814;4.572;2023-05-14T13:27:47;19.60;99.90
19898;DHT22;10111;50.814;4.572;2023-05-14T13:30:19;19.60;99.90
19898;DHT22;10111;50.814;4.572;2023-05-14T13:32:45;19.80;99.90
19898;DHT22;10111;50.814;4.572;2023-05-14T13:35:11;19.90;99.90
19898;DHT22;10111;50.814;4.572;2023-05-14T13:37:37;20.00;99.90
19898;DHT22;10111;50.814;4.572;2023-05-14T13:40:03;20.30;99.90
19898;DHT22;10111;50.814;4.572;2023-05-14T13:42:31;20.40;99.90
19898;DHT22;10111;50.814;4.572;2023-05-14T13:44:58;20.40;99.90
19898;DHT22;10111;50.814;4.572;2023-05-14T13:47:24;20.40;99.90
19898;DHT22;10111;50.814;4.572;2023-05-14T13:49:54;20.40;99.90
19898;DHT22;10111;50.814;4.572;2023-05-14T13:52:20;20.40;99.90
19898;DHT22;10111;50.814;4.572;2023-05-14T13:54:46;20.50;99.90
19898;DHT22;10111;50.814;4.572;2023-05-14T13:57:12;20.60;99.90
19898;DHT22;10111;50.814;4.572;2023-05-14T13:59:37;20.60;99.90
19898;DHT22;10111;50.814;4.572;2023-05-14T14:02:04;20.70;99.90
19898;DHT22;10111;50.814;4.572;2023-05-14T14:04:30;20.90;99.90
19898;DHT22;10111;50.814;4.572;2023-05-14T14:06:56;20.90;99.90
19898;DHT22;10111;50.814;4.572;2023-05-14T14:09:22;21.00;99.90
19898;DHT22;10111;50.814;4.572;2023-05-14T14:11:48;21.10;99.90
19898;DHT22;10111;50.814;4.572;2023-05-14T14:14:14;21.10;99.90
19898;DHT22;10111;50.814;4.572;2023-05-14T14:16:39;21.20;99.90
19898;DHT22;10111;50.814;4.572;2023-05-14T14:19:05;21.30;99.90
19898;DHT22;10111;50.814;4.572;2023-05-14T14:21:31;21.40;99.90
19898;DHT22;10111;50.814;4.572;2023-05-14T14:23:57;21.50;99.90
19898;DHT22;10111;50.814;4.572;2023-05-14T14:26:23;21.70;99.90
19898;DHT22;10111;50.814;4.572;2023-05-14T14:28:48;21.70;99.90
19898;DHT22;10111;50.814;4.572;2023-05-14T14:31:15;21.70;99.90
19898;DHT22;10111;50.814;4.572;2023-05-14T14:33:41;21.70;99.90
19898;DHT22;10111;50.814;4.572;2023-05-14T14:36:07;21.80;99.90
19898;DHT22;10111;50.814;4.572;2023-05-14T14:38:33;21.80;99.90
19898;DHT22;10111;50.814;4.572;2023-05-14T14:40:59;21.90;99.90
19898;DHT22;10111;50.814;4.572;2023-05-14T14:43:27;22.00;99.90
19898;DHT22;10111;50.814;4.572;2023-05-14T14:45:53;22.00;99.90
19898;DHT22;10111;50.814;4.572;2023-05-14T14:48:27;22.10;99.90
19898;DHT22;10111;50.814;4.572;2023-05-14T14:50:56;22.00;99.90
19898;DHT22;10111;50.814;4.572;2023-05-14T14:53:22;21.90;99.90
19898;DHT22;10111;50.814;4.572;2023-05-14T14:55:48;21.90;99.90
19898;DHT22;10111;50.814;4.572;2023-05-14T14:58:15;21.60;99.90
19898;DHT22;10111;50.814;4.572;2023-05-14T15:00:40;21.60;99.90
19898;DHT22;10111;50.814;4.572;2023-05-14T15:03:06;21.70;99.90
19898;DHT22;10111;50.814;4.572;2023-05-14T15:05:34;21.80;99.90
19898;DHT22;10111;50.814;4.572;2023-05-14T15:07:59;21.80;99.90
19898;DHT22;10111;50.814;4.572;2023-05-14T15:10:29;21.90;99.90
19898;DHT22;10111;50.814;4.572;2023-05-14T15:12:57;22.00;99.90
19898;DHT22;10111;50.814;4.572;2023-05-14T15:15:23;21.80;99.90
19898;DHT22;10111;50.814;4.572;2023-05-14T15:17:49;21.70;99.90
19898;DHT22;10111;50.814;4.572;2023-05-14T15:20:15;21.80;99.90
19898;DHT22;10111;50.814;4.572;2023-05-14T15:22:41;21.90;99.90
19898;DHT22;10111;50.814;4.572;2023-05-14T15:25:07;22.00;99.90
19898;DHT22;10111;50.814;4.572;2023-05-14T15:27:34;21.90;99.90
19898;DHT22;10111;50.814;4.572;2023-05-14T15:29:59;21.90;99.90
19898;DHT22;10111;50.814;4.572;2023-05-14T15:32:25;21.90;99.90